sensor_id;sensor_type;location;lat;lon;timestamp;P1;durP1;ratioP1;P2;durP2;ratioP2
3922;SDS011;1976;51.694;6.256;2024-03-29T00:00:43;2.10;;;1.13;;
3922;SDS011;1976;51.694;6.256;2024-03-29T00:03:09;1.40;;;1.00;;
3922;SDS011;1976;51.694;6.256;2024-03-29T00:05:35;4.30;;;1.17;;
3922;SDS011;1976;51.694;6.256;2024-03-29T00:08:01;11.80;;;1.57;;
3922;SDS011;1976;51.694;6.256;2024-03-29T00:10:30;2.30;;;1.20;;
3922;SDS011;1976;51.694;6.256;2024-03-29T00:12:56;1.20;;;1.07;;
3922;SDS011;1976;51.694;6.256;2024-03-29T00:15:22;2.20;;;0.90;;
3922;SDS011;1976;51.694;6.256;2024-03-29T00:17:47;1.00;;;1.00;;
3922;SDS011;1976;51.694;6.256;2024-03-29T00:20:13;3.57;;;1.27;;
3922;SDS011;1976;51.694;6.256;2024-03-29T00:22:39;1.57;;;1.13;;
3922;SDS011;1976;51.694;6.256;2024-03-29T00:25:04;2.70;;;1.33;;
3922;SDS011;1976;51.694;6.256;2024-03-29T00:27:30;1.10;;;1.00;;
3922;SDS011;1976;51.694;6.256;2024-03-29T00:29:56;1.87;;;1.10;;
3922;SDS011;1976;51.694;6.256;2024-03-29T00:32:22;7.43;;;1.57;;
3922;SDS011;1976;51.694;6.256;2024-03-29T00:34:51;3.60;;;1.00;;
3922;SDS011;1976;51.694;6.256;2024-03-29T00:37:17;0.90;;;0.90;;
3922;SDS011;1976;51.694;6.256;2024-03-29T00:39:43;0.80;;;0.80;;
3922;SDS011;1976;51.694;6.256;2024-03-29T00:42:09;1.10;;;0.80;;
3922;SDS011;1976;51.694;6.256;2024-03-29T00:44:37;3.00;;;1.47;;
3922;SDS011;1976;51.694;6.256;2024-03-29T00:47:04;0.60;;;0.60;;
3922;SDS011;1976;51.694;6.256;2024-03-29T00:49:30;4.30;;;0.90;;
3922;SDS011;1976;51.694;6.256;2024-03-29T00:51:56;0.70;;;0.70;;
3922;SDS011;1976;51.694;6.256;2024-03-29T00:54:21;0.80;;;0.80;;
3922;SDS011;1976;51.694;6.256;2024-03-29T00:56:50;2.47;;;1.40;;
3922;SDS011;1976;51.694;6.256;2024-03-29T00:59:15;1.37;;;0.80;;
3922;SDS011;1976;51.694;6.256;2024-03-29T01:01:41;3.27;;;0.87;;
3922;SDS011;1976;51.694;6.256;2024-03-29T01:04:07;1.13;;;1.03;;
3922;SDS011;1976;51.694;6.256;2024-03-29T01:06:33;2.03;;;0.97;;
3922;SDS011;1976;51.694;6.256;2024-03-29T01:08:59;1.20;;;1.10;;
3922;SDS011;1976;51.694;6.256;2024-03-29T01:11:25;0.97;;;0.90;;
3922;SDS011;1976;51.694;6.256;2024-03-29T01:13:52;1.00;;;1.00;;
3922;SDS011;1976;51.694;6.256;2024-03-29T01:16:18;0.93;;;0.73;;
3922;SDS011;1976;51.694;6.256;2024-03-29T01:18:44;1.10;;;0.93;;
3922;SDS011;1976;51.694;6.256;2024-03-29T01:21:11;2.40;;;1.40;;
3922;SDS011;1976;51.694;6.256;2024-03-29T01:23:37;1.23;;;1.10;;
3922;SDS011;1976;51.694;6.256;2024-03-29T01:26:04;1.30;;;1.20;;
3922;SDS011;1976;51.694;6.256;2024-03-29T01:28:30;1.10;;;1.00;;
3922;SDS011;1976;51.694;6.256;2024-03-29T01:30:56;1.23;;;1.23;;
3922;SDS011;1976;51.694;6.256;2024-03-29T01:33:23;0.90;;;0.80;;
3922;SDS011;1976;51.694;6.256;2024-03-29T01:35:49;0.70;;;0.70;;
3922;SDS011;1976;51.694;6.256;2024-03-29T01:38:14;5.80;;;1.20;;
3922;SDS011;1976;51.694;6.256;2024-03-29T01:40:40;4.00;;;1.27;;
3922;SDS011;1976;51.694;6.256;2024-03-29T01:43:06;0.73;;;0.73;;
3922;SDS011;1976;51.694;6.256;2024-03-29T01:45:34;1.00;;;0.90;;
3922;SDS011;1976;51.694;6.256;2024-03-29T01:48:03;0.90;;;0.80;;
3922;SDS011;1976;51.694;6.256;2024-03-29T01:50:29;2.20;;;1.03;;
3922;SDS011;1976;51.694;6.256;2024-03-29T01:52:55;2.30;;;1.23;;
3922;SDS011;1976;51.694;6.256;2024-03-29T01:55:20;1.40;;;0.97;;
3922;SDS011;1976;51.694;6.256;2024-03-29T01:57:46;1.13;;;0.90;;
3922;SDS011;1976;51.694;6.256;2024-03-29T02:00:12;2.17;;;1.37;;
3922;SDS011;1976;51.694;6.256;2024-03-29T02:02:38;3.10;;;1.20;;
3922;SDS011;1976;51.694;6.256;2024-03-29T02:05:03;3.67;;;1.77;;
3922;SDS011;1976;51.694;6.256;2024-03-29T02:07:29;0.80;;;0.73;;
3922;SDS011;1976;51.694;6.256;2024-03-29T02:09:55;1.57;;;1.17;;
3922;SDS011;1976;51.694;6.256;2024-03-29T02:12:21;1.30;;;1.10;;
3922;SDS011;1976;51.694;6.256;2024-03-29T02:14:47;1.10;;;1.00;;
3922;SDS011;1976;51.694;6.256;2024-03-29T02:17:12;2.10;;;0.80;;
3922;SDS011;1976;51.694;6.256;2024-03-29T02:19:38;3.33;;;1.13;;
3922;SDS011;1976;51.694;6.256;2024-03-29T02:22:03;1.87;;;1.13;;
3922;SDS011;1976;51.694;6.256;2024-03-29T02:24:32;1.10;;;1.10;;
3922;SDS011;1976;51.694;6.256;2024-03-29T02:26:58;1.43;;;1.10;;
3922;SDS011;1976;51.694;6.256;2024-03-29T02:29:24;1.00;;;0.90;;
3922;SDS011;1976;51.694;6.256;2024-03-29T02:31:50;2.77;;;1.33;;
3922;SDS011;1976;51.694;6.256;2024-03-29T02:34:15;6.10;;;1.40;;
3922;SDS011;1976;51.694;6.256;2024-03-29T02:36:41;2.27;;;1.27;;
3922;SDS011;1976;51.694;6.256;2024-03-29T02:39:08;0.73;;;0.73;;
3922;SDS011;1976;51.694;6.256;2024-03-29T02:41:34;0.80;;;0.80;;
3922;SDS011;1976;51.694;6.256;2024-03-29T02:44:00;1.53;;;1.20;;
3922;SDS011;1976;51.694;6.256;2024-03-29T02:46:25;1.93;;;1.43;;
3922;SDS011;1976;51.694;6.256;2024-03-29T02:48:51;2.80;;;1.00;;
3922;SDS011;1976;51.694;6.256;2024-03-29T02:51:17;1.93;;;1.67;;
3922;SDS011;1976;51.694;6.256;2024-03-29T02:53:43;1.20;;;1.10;;
3922;SDS011;1976;51.694;6.256;2024-03-29T02:56:08;0.77;;;0.77;;
3922;SDS011;1976;51.694;6.256;2024-03-29T02:58:34;0.97;;;0.97;;
3922;SDS011;1976;51.694;6.256;2024-03-29T03:01:06;3.97;;;1.13;;
3922;SDS011;1976;51.694;6.256;2024-03-29T03:03:33;1.00;;;0.90;;
3922;SDS011;1976;51.694;6.256;2024-03-29T03:05:58;2.13;;;1.17;;
3922;SDS011;1976;51.694;6.256;2024-03-29T03:08:24;9.20;;;1.00;;
3922;SDS011;1976;51.694;6.256;2024-03-29T03:11:08;1.33;;;0.90;;
3922;SDS011;1976;51.694;6.256;2024-03-29T03:13:34;0.90;;;0.90;;
3922;SDS011;1976;51.694;6.256;2024-03-29T03:15:59;1.00;;;1.00;;
3922;SDS011;1976;51.694;6.256;2024-03-29T03:18:25;1.83;;;1.07;;
3922;SDS011;1976;51.694;6.256;2024-03-29T03:20:53;1.83;;;1.17;;
3922;SDS011;1976;51.694;6.256;2024-03-29T03:23:20;0.90;;;0.87;;
3922;SDS011;1976;51.694;6.256;2024-03-29T03:25:52;2.07;;;1.27;;
3922;SDS011;1976;51.694;6.256;2024-03-29T03:28:19;5.73;;;1.47;;
3922;SDS011;1976;51.694;6.256;2024-03-29T03:30:45;1.43;;;1.03;;
3922;SDS011;1976;51.694;6.256;2024-03-29T03:33:11;0.80;;;0.80;;
3922;SDS011;1976;51.694;6.256;2024-03-29T03:35:37;1.23;;;1.10;;
3922;SDS011;1976;51.694;6.256;2024-03-29T03:38:02;0.83;;;0.80;;
3922;SDS011;1976;51.694;6.256;2024-03-29T03:40:28;0.80;;;0.80;;
3922;SDS011;1976;51.694;6.256;2024-03-29T03:42:53;5.53;;;1.03;;
3922;SDS011;1976;51.694;6.256;2024-03-29T03:45:19;3.87;;;1.63;;
3922;SDS011;1976;51.694;6.256;2024-03-29T03:47:45;0.70;;;0.70;;
3922;SDS011;1976;51.694;6.256;2024-03-29T03:50:10;1.53;;;1.27;;
3922;SDS011;1976;51.694;6.256;2024-03-29T03:52:36;1.20;;;1.10;;
3922;SDS011;1976;51.694;6.256;2024-03-29T03:55:02;0.80;;;0.80;;
3922;SDS011;1976;51.694;6.256;2024-03-29T03:57:28;1.73;;;1.00;;
3922;SDS011;1976;51.694;6.256;2024-03-29T03:59:53;0.80;;;0.80;;
3922;SDS011;1976;51.694;6.256;2024-03-29T04:02:19;1.23;;;0.80;;
3922;SDS011;1976;51.694;6.256;2024-03-29T04:04:47;1.00;;;0.90;;
3922;SDS011;1976;51.694;6.256;2024-03-29T04:07:13;2.93;;;0.90;;
3922;SDS011;1976;51.694;6.256;2024-03-29T04:09:39;1.00;;;0.80;;
3922;SDS011;1976;51.694;6.256;2024-03-29T04:12:04;1.23;;;0.90;;
3922;SDS011;1976;51.694;6.256;2024-03-29T04:14:30;0.80;;;0.80;;
3922;SDS011;1976;51.694;6.256;2024-03-29T04:16:56;1.27;;;1.10;;
3922;SDS011;1976;51.694;6.256;2024-03-29T04:19:21;0.90;;;0.90;;
3922;SDS011;1976;51.694;6.256;2024-03-29T04:21:47;1.10;;;0.93;;
3922;SDS011;1976;51.694;6.256;2024-03-29T04:24:13;1.53;;;0.90;;
3922;SDS011;1976;51.694;6.256;2024-03-29T04:26:38;2.53;;;1.00;;
3922;SDS011;1976;51.694;6.256;2024-03-29T04:29:04;3.17;;;0.90;;
3922;SDS011;1976;51.694;6.256;2024-03-29T04:31:30;1.70;;;1.30;;
3922;SDS011;1976;51.694;6.256;2024-03-29T04:33:55;0.90;;;0.90;;
3922;SDS011;1976;51.694;6.256;2024-03-29T04:36:21;3.17;;;1.07;;
3922;SDS011;1976;51.694;6.256;2024-03-29T04:38:47;1.00;;;0.93;;
3922;SDS011;1976;51.694;6.256;2024-03-29T04:41:12;2.07;;;1.23;;
3922;SDS011;1976;51.694;6.256;2024-03-29T04:43:39;16.00;;;1.47;;
3922;SDS011;1976;51.694;6.256;2024-03-29T04:46:13;1.10;;;1.10;;
3922;SDS011;1976;51.694;6.256;2024-03-29T04:48:39;2.40;;;0.90;;
3922;SDS011;1976;51.694;6.256;2024-03-29T04:51:06;1.70;;;1.20;;
3922;SDS011;1976;51.694;6.256;2024-03-29T04:53:32;1.10;;;1.00;;
3922;SDS011;1976;51.694;6.256;2024-03-29T04:55:59;12.03;;;1.47;;
3922;SDS011;1976;51.694;6.256;2024-03-29T04:58:25;1.03;;;0.93;;
3922;SDS011;1976;51.694;6.256;2024-03-29T05:00:51;0.80;;;0.80;;
3922;SDS011;1976;51.694;6.256;2024-03-29T05:03:18;1.17;;;1.17;;
3922;SDS011;1976;51.694;6.256;2024-03-29T05:05:44;12.87;;;1.47;;
3922;SDS011;1976;51.694;6.256;2024-03-29T05:08:10;0.90;;;0.90;;
3922;SDS011;1976;51.694;6.256;2024-03-29T05:10:36;0.60;;;0.60;;
3922;SDS011;1976;51.694;6.256;2024-03-29T05:13:02;0.60;;;0.60;;
3922;SDS011;1976;51.694;6.256;2024-03-29T05:15:28;0.60;;;0.60;;
3922;SDS011;1976;51.694;6.256;2024-03-29T05:17:54;0.60;;;0.60;;
3922;SDS011;1976;51.694;6.256;2024-03-29T05:20:20;0.70;;;0.70;;
3922;SDS011;1976;51.694;6.256;2024-03-29T05:22:45;0.70;;;0.70;;
3922;SDS011;1976;51.694;6.256;2024-03-29T05:25:11;0.60;;;0.60;;
3922;SDS011;1976;51.694;6.256;2024-03-29T05:27:36;0.60;;;0.60;;
3922;SDS011;1976;51.694;6.256;2024-03-29T05:30:02;0.70;;;0.70;;
3922;SDS011;1976;51.694;6.256;2024-03-29T05:32:29;0.60;;;0.60;;
3922;SDS011;1976;51.694;6.256;2024-03-29T05:34:55;0.60;;;0.60;;
3922;SDS011;1976;51.694;6.256;2024-03-29T05:37:20;0.60;;;0.60;;
3922;SDS011;1976;51.694;6.256;2024-03-29T05:39:47;0.60;;;0.60;;
3922;SDS011;1976;51.694;6.256;2024-03-29T05:42:12;0.60;;;0.60;;
3922;SDS011;1976;51.694;6.256;2024-03-29T05:44:38;0.60;;;0.60;;
3922;SDS011;1976;51.694;6.256;2024-03-29T05:47:03;0.60;;;0.60;;
3922;SDS011;1976;51.694;6.256;2024-03-29T05:49:30;0.60;;;0.60;;
3922;SDS011;1976;51.694;6.256;2024-03-29T05:51:56;0.60;;;0.60;;
3922;SDS011;1976;51.694;6.256;2024-03-29T05:54:21;0.60;;;0.60;;
3922;SDS011;1976;51.694;6.256;2024-03-29T05:56:47;0.70;;;0.70;;
3922;SDS011;1976;51.694;6.256;2024-03-29T05:59:13;0.60;;;0.60;;
3922;SDS011;1976;51.694;6.256;2024-03-29T06:01:39;0.60;;;0.60;;
3922;SDS011;1976;51.694;6.256;2024-03-29T06:04:04;0.60;;;0.60;;
3922;SDS011;1976;51.694;6.256;2024-03-29T06:06:38;0.60;;;0.60;;
3922;SDS011;1976;51.694;6.256;2024-03-29T06:09:04;0.60;;;0.60;;
3922;SDS011;1976;51.694;6.256;2024-03-29T06:11:30;0.60;;;0.60;;
3922;SDS011;1976;51.694;6.256;2024-03-29T06:13:56;0.60;;;0.60;;
3922;SDS011;1976;51.694;6.256;2024-03-29T06:16:24;0.60;;;0.60;;
3922;SDS011;1976;51.694;6.256;2024-03-29T06:19:10;0.60;;;0.60;;
3922;SDS011;1976;51.694;6.256;2024-03-29T06:21:36;0.60;;;0.60;;
3922;SDS011;1976;51.694;6.256;2024-03-29T06:24:07;0.60;;;0.60;;
3922;SDS011;1976;51.694;6.256;2024-03-29T06:26:37;0.60;;;0.60;;
3922;SDS011;1976;51.694;6.256;2024-03-29T06:29:03;0.70;;;0.70;;
3922;SDS011;1976;51.694;6.256;2024-03-29T06:31:28;0.60;;;0.60;;
3922;SDS011;1976;51.694;6.256;2024-03-29T06:33:54;0.60;;;0.60;;
3922;SDS011;1976;51.694;6.256;2024-03-29T06:36:20;0.60;;;0.60;;
3922;SDS011;1976;51.694;6.256;2024-03-29T06:38:46;0.60;;;0.60;;
3922;SDS011;1976;51.694;6.256;2024-03-29T06:41:11;0.60;;;0.60;;
3922;SDS011;1976;51.694;6.256;2024-03-29T06:43:37;0.60;;;0.60;;
3922;SDS011;1976;51.694;6.256;2024-03-29T06:46:05;0.60;;;0.60;;
3922;SDS011;1976;51.694;6.256;2024-03-29T06:48:31;0.70;;;0.70;;
3922;SDS011;1976;51.694;6.256;2024-03-29T06:50:57;0.60;;;0.60;;
3922;SDS011;1976;51.694;6.256;2024-03-29T06:53:23;0.60;;;0.60;;
3922;SDS011;1976;51.694;6.256;2024-03-29T06:55:49;0.60;;;0.60;;
3922;SDS011;1976;51.694;6.256;2024-03-29T06:58:15;0.60;;;0.60;;
3922;SDS011;1976;51.694;6.256;2024-03-29T07:00:41;5.07;;;1.27;;
3922;SDS011;1976;51.694;6.256;2024-03-29T07:03:08;0.60;;;0.60;;
3922;SDS011;1976;51.694;6.256;2024-03-29T07:05:34;0.60;;;0.60;;
3922;SDS011;1976;51.694;6.256;2024-03-29T07:07:59;0.60;;;0.60;;
3922;SDS011;1976;51.694;6.256;2024-03-29T07:10:26;0.60;;;0.60;;
3922;SDS011;1976;51.694;6.256;2024-03-29T07:12:51;0.60;;;0.60;;
3922;SDS011;1976;51.694;6.256;2024-03-29T07:15:17;0.60;;;0.60;;
3922;SDS011;1976;51.694;6.256;2024-03-29T07:17:42;0.60;;;0.60;;
3922;SDS011;1976;51.694;6.256;2024-03-29T07:20:09;0.60;;;0.60;;
3922;SDS011;1976;51.694;6.256;2024-03-29T07:22:35;0.60;;;0.60;;
3922;SDS011;1976;51.694;6.256;2024-03-29T07:25:01;0.60;;;0.60;;
3922;SDS011;1976;51.694;6.256;2024-03-29T07:27:26;0.60;;;0.60;;
3922;SDS011;1976;51.694;6.256;2024-03-29T07:29:54;0.60;;;0.60;;
3922;SDS011;1976;51.694;6.256;2024-03-29T07:32:20;0.60;;;0.60;;
3922;SDS011;1976;51.694;6.256;2024-03-29T07:34:45;0.60;;;0.60;;
3922;SDS011;1976;51.694;6.256;2024-03-29T07:37:11;0.60;;;0.60;;
3922;SDS011;1976;51.694;6.256;2024-03-29T07:39:40;0.60;;;0.60;;
3922;SDS011;1976;51.694;6.256;2024-03-29T07:42:06;0.60;;;0.60;;
3922;SDS011;1976;51.694;6.256;2024-03-29T07:44:33;0.70;;;0.70;;
3922;SDS011;1976;51.694;6.256;2024-03-29T07:46:58;0.60;;;0.60;;
3922;SDS011;1976;51.694;6.256;2024-03-29T07:49:24;0.60;;;0.60;;
3922;SDS011;1976;51.694;6.256;2024-03-29T07:51:49;0.70;;;0.70;;
3922;SDS011;1976;51.694;6.256;2024-03-29T07:54:15;0.60;;;0.60;;
3922;SDS011;1976;51.694;6.256;2024-03-29T07:56:40;0.60;;;0.60;;
3922;SDS011;1976;51.694;6.256;2024-03-29T07:59:06;0.60;;;0.60;;
3922;SDS011;1976;51.694;6.256;2024-03-29T08:01:31;0.60;;;0.60;;
3922;SDS011;1976;51.694;6.256;2024-03-29T08:03:57;0.60;;;0.60;;
3922;SDS011;1976;51.694;6.256;2024-03-29T08:06:23;0.60;;;0.60;;
3922;SDS011;1976;51.694;6.256;2024-03-29T08:08:49;0.60;;;0.60;;
3922;SDS011;1976;51.694;6.256;2024-03-29T08:11:15;0.60;;;0.60;;
3922;SDS011;1976;51.694;6.256;2024-03-29T08:13:41;0.60;;;0.60;;
3922;SDS011;1976;51.694;6.256;2024-03-29T08:16:07;0.60;;;0.60;;
3922;SDS011;1976;51.694;6.256;2024-03-29T08:18:33;0.60;;;0.60;;
3922;SDS011;1976;51.694;6.256;2024-03-29T08:20:59;0.60;;;0.60;;
3922;SDS011;1976;51.694;6.256;2024-03-29T08:23:25;0.60;;;0.60;;
3922;SDS011;1976;51.694;6.256;2024-03-29T08:25:51;0.60;;;0.60;;
3922;SDS011;1976;51.694;6.256;2024-03-29T08:28:20;0.87;;;0.87;;
3922;SDS011;1976;51.694;6.256;2024-03-29T08:30:46;0.60;;;0.60;;
3922;SDS011;1976;51.694;6.256;2024-03-29T08:33:21;0.60;;;0.60;;
3922;SDS011;1976;51.694;6.256;2024-03-29T08:35:47;0.60;;;0.60;;
3922;SDS011;1976;51.694;6.256;2024-03-29T08:38:13;0.60;;;0.60;;
3922;SDS011;1976;51.694;6.256;2024-03-29T08:40:39;0.60;;;0.60;;
3922;SDS011;1976;51.694;6.256;2024-03-29T08:43:07;0.60;;;0.60;;
3922;SDS011;1976;51.694;6.256;2024-03-29T08:45:32;0.60;;;0.60;;
3922;SDS011;1976;51.694;6.256;2024-03-29T08:47:58;0.60;;;0.60;;
3922;SDS011;1976;51.694;6.256;2024-03-29T08:50:23;0.60;;;0.60;;
3922;SDS011;1976;51.694;6.256;2024-03-29T08:52:49;0.60;;;0.60;;
3922;SDS011;1976;51.694;6.256;2024-03-29T08:55:15;0.60;;;0.60;;
3922;SDS011;1976;51.694;6.256;2024-03-29T08:57:41;0.60;;;0.60;;
3922;SDS011;1976;51.694;6.256;2024-03-29T09:00:08;0.60;;;0.60;;
3922;SDS011;1976;51.694;6.256;2024-03-29T09:02:33;0.60;;;0.60;;
3922;SDS011;1976;51.694;6.256;2024-03-29T09:04:59;0.60;;;0.60;;
3922;SDS011;1976;51.694;6.256;2024-03-29T09:07:25;0.60;;;0.60;;
3922;SDS011;1976;51.694;6.256;2024-03-29T09:09:51;0.60;;;0.60;;
3922;SDS011;1976;51.694;6.256;2024-03-29T09:12:17;0.77;;;0.77;;
3922;SDS011;1976;51.694;6.256;2024-03-29T09:14:43;0.60;;;0.60;;
3922;SDS011;1976;51.694;6.256;2024-03-29T09:17:10;0.60;;;0.60;;
3922;SDS011;1976;51.694;6.256;2024-03-29T09:19:36;0.60;;;0.60;;
3922;SDS011;1976;51.694;6.256;2024-03-29T09:22:02;0.70;;;0.70;;
3922;SDS011;1976;51.694;6.256;2024-03-29T09:24:27;0.60;;;0.60;;
3922;SDS011;1976;51.694;6.256;2024-03-29T09:26:53;0.60;;;0.60;;
3922;SDS011;1976;51.694;6.256;2024-03-29T09:29:18;0.60;;;0.60;;
3922;SDS011;1976;51.694;6.256;2024-03-29T09:31:47;0.60;;;0.60;;
3922;SDS011;1976;51.694;6.256;2024-03-29T09:34:13;0.60;;;0.60;;
3922;SDS011;1976;51.694;6.256;2024-03-29T09:36:38;0.60;;;0.60;;
3922;SDS011;1976;51.694;6.256;2024-03-29T09:39:04;0.60;;;0.60;;
3922;SDS011;1976;51.694;6.256;2024-03-29T09:41:29;0.60;;;0.60;;
3922;SDS011;1976;51.694;6.256;2024-03-29T09:43:59;0.60;;;0.60;;
3922;SDS011;1976;51.694;6.256;2024-03-29T09:46:27;0.70;;;0.70;;
3922;SDS011;1976;51.694;6.256;2024-03-29T09:48:54;0.60;;;0.60;;
3922;SDS011;1976;51.694;6.256;2024-03-29T09:51:21;0.60;;;0.60;;
3922;SDS011;1976;51.694;6.256;2024-03-29T09:54:09;0.60;;;0.60;;
3922;SDS011;1976;51.694;6.256;2024-03-29T09:56:37;0.60;;;0.60;;
3922;SDS011;1976;51.694;6.256;2024-03-29T09:59:03;1.13;;;1.03;;
3922;SDS011;1976;51.694;6.256;2024-03-29T10:01:29;0.60;;;0.60;;
3922;SDS011;1976;51.694;6.256;2024-03-29T10:03:56;8.00;;;1.70;;
3922;SDS011;1976;51.694;6.256;2024-03-29T10:06:23;1.57;;;1.33;;
3922;SDS011;1976;51.694;6.256;2024-03-29T10:08:49;5.27;;;1.43;;
3922;SDS011;1976;51.694;6.256;2024-03-29T10:11:17;2.87;;;1.27;;
3922;SDS011;1976;51.694;6.256;2024-03-29T10:13:46;1.33;;;1.17;;
3922;SDS011;1976;51.694;6.256;2024-03-29T10:16:12;2.10;;;1.10;;
3922;SDS011;1976;51.694;6.256;2024-03-29T10:18:40;2.93;;;1.40;;
3922;SDS011;1976;51.694;6.256;2024-03-29T10:21:08;1.50;;;1.40;;
3922;SDS011;1976;51.694;6.256;2024-03-29T10:23:35;1.10;;;1.00;;
3922;SDS011;1976;51.694;6.256;2024-03-29T10:26:01;10.57;;;1.10;;
3922;SDS011;1976;51.694;6.256;2024-03-29T10:28:30;12.83;;;1.60;;
3922;SDS011;1976;51.694;6.256;2024-03-29T10:30:58;2.73;;;1.83;;
3922;SDS011;1976;51.694;6.256;2024-03-29T10:33:27;2.30;;;1.30;;
3922;SDS011;1976;51.694;6.256;2024-03-29T10:35:54;1.73;;;1.63;;
3922;SDS011;1976;51.694;6.256;2024-03-29T10:38:21;1.50;;;1.40;;
3922;SDS011;1976;51.694;6.256;2024-03-29T10:40:47;1.67;;;1.40;;
3922;SDS011;1976;51.694;6.256;2024-03-29T10:43:14;2.67;;;1.20;;
3922;SDS011;1976;51.694;6.256;2024-03-29T10:45:42;1.80;;;1.70;;
3922;SDS011;1976;51.694;6.256;2024-03-29T10:48:08;2.93;;;1.20;;
3922;SDS011;1976;51.694;6.256;2024-03-29T10:50:38;2.90;;;1.67;;
3922;SDS011;1976;51.694;6.256;2024-03-29T10:53:06;2.53;;;1.37;;
3922;SDS011;1976;51.694;6.256;2024-03-29T10:55:36;1.27;;;1.17;;
3922;SDS011;1976;51.694;6.256;2024-03-29T10:58:02;1.73;;;1.30;;
3922;SDS011;1976;51.694;6.256;2024-03-29T11:00:32;1.57;;;1.30;;
3922;SDS011;1976;51.694;6.256;2024-03-29T11:05:49;1.43;;;1.00;;
3922;SDS011;1976;51.694;6.256;2024-03-29T11:08:22;2.33;;;1.43;;
3922;SDS011;1976;51.694;6.256;2024-03-29T11:10:51;2.97;;;1.30;;
3922;SDS011;1976;51.694;6.256;2024-03-29T11:16:12;1.00;;;0.90;;
3922;SDS011;1976;51.694;6.256;2024-03-29T11:18:40;0.93;;;0.83;;
3922;SDS011;1976;51.694;6.256;2024-03-29T11:21:07;1.27;;;1.17;;
3922;SDS011;1976;51.694;6.256;2024-03-29T11:23:35;0.90;;;0.90;;
3922;SDS011;1976;51.694;6.256;2024-03-29T11:26:00;0.93;;;0.93;;
3922;SDS011;1976;51.694;6.256;2024-03-29T11:28:28;0.90;;;0.90;;
3922;SDS011;1976;51.694;6.256;2024-03-29T11:30:58;0.90;;;0.90;;
3922;SDS011;1976;51.694;6.256;2024-03-29T11:33:33;1.27;;;0.93;;
3922;SDS011;1976;51.694;6.256;2024-03-29T11:36:12;1.13;;;1.03;;
3922;SDS011;1976;51.694;6.256;2024-03-29T11:38:39;2.40;;;1.53;;
3922;SDS011;1976;51.694;6.256;2024-03-29T11:41:12;0.83;;;0.83;;
3922;SDS011;1976;51.694;6.256;2024-03-29T11:43:39;1.43;;;0.90;;
3922;SDS011;1976;51.694;6.256;2024-03-29T11:46:07;0.70;;;0.70;;
3922;SDS011;1976;51.694;6.256;2024-03-29T11:48:34;1.13;;;0.90;;
3922;SDS011;1976;51.694;6.256;2024-03-29T11:51:01;1.27;;;0.80;;
3922;SDS011;1976;51.694;6.256;2024-03-29T11:53:28;1.47;;;0.90;;
3922;SDS011;1976;51.694;6.256;2024-03-29T11:56:03;5.73;;;1.27;;
3922;SDS011;1976;51.694;6.256;2024-03-29T11:58:30;1.10;;;0.97;;
3922;SDS011;1976;51.694;6.256;2024-03-29T12:00:57;4.37;;;0.97;;
3922;SDS011;1976;51.694;6.256;2024-03-29T12:03:24;0.93;;;0.80;;
3922;SDS011;1976;51.694;6.256;2024-03-29T12:05:51;2.13;;;0.93;;
3922;SDS011;1976;51.694;6.256;2024-03-29T12:08:19;0.87;;;0.73;;
3922;SDS011;1976;51.694;6.256;2024-03-29T12:10:49;1.33;;;1.00;;
3922;SDS011;1976;51.694;6.256;2024-03-29T12:13:15;0.80;;;0.80;;
3922;SDS011;1976;51.694;6.256;2024-03-29T12:15:42;1.93;;;0.80;;
3922;SDS011;1976;51.694;6.256;2024-03-29T12:18:08;2.20;;;1.00;;
3922;SDS011;1976;51.694;6.256;2024-03-29T12:20:35;0.80;;;0.80;;
3922;SDS011;1976;51.694;6.256;2024-03-29T12:23:02;0.83;;;0.83;;
3922;SDS011;1976;51.694;6.256;2024-03-29T12:25:29;0.80;;;0.80;;
3922;SDS011;1976;51.694;6.256;2024-03-29T12:27:56;0.97;;;0.87;;
3922;SDS011;1976;51.694;6.256;2024-03-29T12:30:22;0.70;;;0.70;;
3922;SDS011;1976;51.694;6.256;2024-03-29T12:32:48;1.07;;;0.87;;
3922;SDS011;1976;51.694;6.256;2024-03-29T12:35:24;0.80;;;0.80;;
3922;SDS011;1976;51.694;6.256;2024-03-29T12:37:52;1.63;;;0.90;;
3922;SDS011;1976;51.694;6.256;2024-03-29T12:40:19;1.33;;;0.80;;
3922;SDS011;1976;51.694;6.256;2024-03-29T12:42:50;0.80;;;0.80;;
3922;SDS011;1976;51.694;6.256;2024-03-29T12:45:17;0.60;;;0.60;;
3922;SDS011;1976;51.694;6.256;2024-03-29T12:47:44;2.93;;;0.90;;
3922;SDS011;1976;51.694;6.256;2024-03-29T12:50:14;1.13;;;0.77;;
3922;SDS011;1976;51.694;6.256;2024-03-29T12:52:49;0.70;;;0.70;;
3922;SDS011;1976;51.694;6.256;2024-03-29T12:55:15;1.40;;;0.90;;
3922;SDS011;1976;51.694;6.256;2024-03-29T12:57:43;0.70;;;0.70;;
3922;SDS011;1976;51.694;6.256;2024-03-29T13:00:09;0.80;;;0.80;;
3922;SDS011;1976;51.694;6.256;2024-03-29T13:02:38;1.20;;;0.80;;
3922;SDS011;1976;51.694;6.256;2024-03-29T13:05:04;0.80;;;0.80;;
3922;SDS011;1976;51.694;6.256;2024-03-29T13:07:30;0.60;;;0.60;;
3922;SDS011;1976;51.694;6.256;2024-03-29T13:09:56;0.80;;;0.80;;
3922;SDS011;1976;51.694;6.256;2024-03-29T13:12:24;0.93;;;0.90;;
3922;SDS011;1976;51.694;6.256;2024-03-29T13:14:50;1.10;;;0.70;;
3922;SDS011;1976;51.694;6.256;2024-03-29T13:17:15;1.37;;;0.80;;
3922;SDS011;1976;51.694;6.256;2024-03-29T13:19:41;0.80;;;0.80;;
3922;SDS011;1976;51.694;6.256;2024-03-29T13:22:06;1.20;;;1.00;;
3922;SDS011;1976;51.694;6.256;2024-03-29T13:24:32;1.20;;;1.10;;
3922;SDS011;1976;51.694;6.256;2024-03-29T13:26:58;0.90;;;0.90;;
3922;SDS011;1976;51.694;6.256;2024-03-29T13:29:23;1.80;;;1.10;;
3922;SDS011;1976;51.694;6.256;2024-03-29T13:31:49;1.17;;;0.80;;
3922;SDS011;1976;51.694;6.256;2024-03-29T13:34:14;1.53;;;0.90;;
3922;SDS011;1976;51.694;6.256;2024-03-29T13:36:42;2.27;;;1.00;;
3922;SDS011;1976;51.694;6.256;2024-03-29T13:39:09;1.63;;;1.20;;
3922;SDS011;1976;51.694;6.256;2024-03-29T13:41:35;15.50;;;1.20;;
3922;SDS011;1976;51.694;6.256;2024-03-29T13:44:01;1.00;;;1.00;;
3922;SDS011;1976;51.694;6.256;2024-03-29T13:46:33;2.83;;;1.33;;
3922;SDS011;1976;51.694;6.256;2024-03-29T13:49:00;0.90;;;0.90;;
3922;SDS011;1976;51.694;6.256;2024-03-29T13:51:26;1.30;;;1.20;;
3922;SDS011;1976;51.694;6.256;2024-03-29T13:53:52;0.90;;;0.90;;
3922;SDS011;1976;51.694;6.256;2024-03-29T13:56:21;2.30;;;1.00;;
3922;SDS011;1976;51.694;6.256;2024-03-29T13:58:46;0.93;;;0.90;;
3922;SDS011;1976;51.694;6.256;2024-03-29T14:01:13;1.83;;;1.10;;
3922;SDS011;1976;51.694;6.256;2024-03-29T14:03:39;1.13;;;1.03;;
3922;SDS011;1976;51.694;6.256;2024-03-29T14:06:05;1.70;;;1.10;;
3922;SDS011;1976;51.694;6.256;2024-03-29T14:08:31;1.77;;;1.20;;
3922;SDS011;1976;51.694;6.256;2024-03-29T14:11:00;2.73;;;1.57;;
3922;SDS011;1976;51.694;6.256;2024-03-29T14:13:25;1.27;;;1.17;;
3922;SDS011;1976;51.694;6.256;2024-03-29T14:15:52;1.73;;;1.30;;
3922;SDS011;1976;51.694;6.256;2024-03-29T14:18:17;2.70;;;1.30;;
3922;SDS011;1976;51.694;6.256;2024-03-29T14:20:43;1.20;;;1.10;;
3922;SDS011;1976;51.694;6.256;2024-03-29T14:23:09;2.20;;;1.40;;
3922;SDS011;1976;51.694;6.256;2024-03-29T14:25:37;2.40;;;0.90;;
3922;SDS011;1976;51.694;6.256;2024-03-29T14:28:03;2.10;;;1.50;;
3922;SDS011;1976;51.694;6.256;2024-03-29T14:30:29;2.30;;;1.40;;
3922;SDS011;1976;51.694;6.256;2024-03-29T14:32:55;5.50;;;1.10;;
3922;SDS011;1976;51.694;6.256;2024-03-29T14:35:21;1.33;;;1.00;;
3922;SDS011;1976;51.694;6.256;2024-03-29T14:37:47;2.40;;;1.07;;
3922;SDS011;1976;51.694;6.256;2024-03-29T14:40:13;2.70;;;1.73;;
3922;SDS011;1976;51.694;6.256;2024-03-29T14:42:41;0.90;;;0.90;;
3922;SDS011;1976;51.694;6.256;2024-03-29T14:45:07;3.40;;;1.10;;
3922;SDS011;1976;51.694;6.256;2024-03-29T14:47:36;1.00;;;0.80;;
3922;SDS011;1976;51.694;6.256;2024-03-29T14:50:02;0.97;;;0.80;;
3922;SDS011;1976;51.694;6.256;2024-03-29T14:52:30;1.07;;;0.97;;
3922;SDS011;1976;51.694;6.256;2024-03-29T14:54:56;0.83;;;0.83;;
3922;SDS011;1976;51.694;6.256;2024-03-29T14:57:21;1.03;;;0.93;;
3922;SDS011;1976;51.694;6.256;2024-03-29T14:59:48;1.50;;;1.40;;
3922;SDS011;1976;51.694;6.256;2024-03-29T15:02:14;1.03;;;1.00;;
3922;SDS011;1976;51.694;6.256;2024-03-29T15:04:39;1.10;;;0.97;;
3922;SDS011;1976;51.694;6.256;2024-03-29T15:07:05;1.20;;;0.90;;
3922;SDS011;1976;51.694;6.256;2024-03-29T15:09:31;1.20;;;1.10;;
3922;SDS011;1976;51.694;6.256;2024-03-29T15:11:57;1.23;;;1.10;;
3922;SDS011;1976;51.694;6.256;2024-03-29T15:14:23;1.20;;;1.10;;
3922;SDS011;1976;51.694;6.256;2024-03-29T15:16:48;2.20;;;1.07;;